createdAt,value
2018-07-28T00:01:42.846Z,56.17
2018-07-28T00:04:10.977Z,55.70
2018-07-28T00:06:39.624Z,56.31
2018-07-28T00:09:09.437Z,56.82
2018-07-28T00:11:37.891Z,56.83
2018-07-28T00:14:06.393Z,56.21
2018-07-28T00:16:35.100Z,56.39
2018-07-28T00:19:03.838Z,57.16
2018-07-28T00:21:32.546Z,57.34
2018-07-28T00:24:01.141Z,56.71
2018-07-28T00:26:29.641Z,57.47
2018-07-28T00:28:58.084Z,57.58
2018-07-28T00:31:26.230Z,58.07
2018-07-28T00:33:54.792Z,57.80
2018-07-28T00:36:23.193Z,58.30
2018-07-28T00:38:51.365Z,57.75
2018-07-28T00:41:19.852Z,58.31
2018-07-28T00:43:48.320Z,58.46
2018-07-28T00:46:17.191Z,58.31
2018-07-28T00:48:45.714Z,59.23
2018-07-28T00:51:14.061Z,58.53
2018-07-28T00:53:42.219Z,58.97
2018-07-28T00:56:10.349Z,59.20
2018-07-28T00:58:38.752Z,59.27
2018-07-28T01:01:07.646Z,58.73
2018-07-28T01:03:35.800Z,58.80
2018-07-28T01:06:04.444Z,58.39
2018-07-28T01:08:32.873Z,59.29
2018-07-28T01:11:01.623Z,58.56
2018-07-28T01:13:30.364Z,58.42
2018-07-28T01:15:59.080Z,58.58
2018-07-28T01:18:27.212Z,59.33
2018-07-28T01:20:55.400Z,59.30
2018-07-28T01:23:23.860Z,59.25
2018-07-28T01:25:52.599Z,59.12
2018-07-28T01:28:21.265Z,58.27
2018-07-28T01:30:49.381Z,58.17
2018-07-28T01:33:17.803Z,58.46
2018-07-28T01:35:46.740Z,59.08
2018-07-28T01:38:15.145Z,59.17
2018-07-28T01:40:43.612Z,58.69
2018-07-28T01:43:12.276Z,59.76
2018-07-28T01:45:40.740Z,58.85
2018-07-28T01:48:08.868Z,59.07
2018-07-28T01:50:37.609Z,58.88
2018-07-28T01:53:06.177Z,59.02
2018-07-28T01:55:34.880Z,60.00
2018-07-28T01:58:03.453Z,59.79
2018-07-28T02:00:31.918Z,60.17
2018-07-28T02:03:00.818Z,59.69
2018-07-28T02:05:29.462Z,60.89
2018-07-28T02:07:57.920Z,60.42
2018-07-28T02:10:26.145Z,60.71
2018-07-28T02:12:54.908Z,59.85
2018-07-28T02:15:23.516Z,61.07
2018-07-28T02:17:51.965Z,60.37
2018-07-28T02:20:20.889Z,60.43
2018-07-28T02:22:49.752Z,60.80
2018-07-28T02:25:18.224Z,61.50
2018-07-28T02:27:47.044Z,61.23
2018-07-28T02:30:15.510Z,60.83
2018-07-28T02:32:45.221Z,60.41
2018-07-28T02:35:13.541Z,61.15
2018-07-28T02:37:42.219Z,60.84
2018-07-28T02:40:10.745Z,60.92
2018-07-28T02:42:39.480Z,60.25
2018-07-28T02:45:08.301Z,60.27
2018-07-28T02:47:37.009Z,60.60
2018-07-28T02:50:06.492Z,61.06
2018-07-28T02:52:34.964Z,61.07
2018-07-28T02:55:03.408Z,61.51
2018-07-28T02:57:31.537Z,61.19
2018-07-28T03:00:00.197Z,61.76
2018-07-28T03:02:28.389Z,61.62
2018-07-28T03:04:57.149Z,62.81
2018-07-28T03:07:25.895Z,62.14
2018-07-28T03:09:54.885Z,62.47
2018-07-28T03:12:23.594Z,62.18
2018-07-28T03:14:52.529Z,62.42
2018-07-28T03:17:21.178Z,62.54
2018-07-28T03:19:49.956Z,62.52
2018-07-28T03:22:18.913Z,63.11
2018-07-28T03:24:47.856Z,62.85
2018-07-28T03:27:17.140Z,63.04
2018-07-28T03:29:46.129Z,62.56
2018-07-28T03:32:14.449Z,62.33
2018-07-28T03:34:42.597Z,63.04
2018-07-28T03:37:10.720Z,63.37
2018-07-28T03:39:39.184Z,63.22
2018-07-28T03:42:07.669Z,62.96
2018-07-28T03:44:36.052Z,63.96
2018-07-28T03:47:04.447Z,63.40
2018-07-28T03:49:32.900Z,63.65
2018-07-28T03:52:01.024Z,64.17
2018-07-28T03:54:30.046Z,64.68
2018-07-28T03:56:58.701Z,64.41
2018-07-28T03:59:27.161Z,64.47
2018-07-28T04:01:55.848Z,64.28
2018-07-28T04:04:24.324Z,64.22
2018-07-28T04:06:53.480Z,64.64
2018-07-28T04:09:22.009Z,64.15
2018-07-28T04:11:50.628Z,64.28
2018-07-28T04:14:19.098Z,64.71
2018-07-28T04:16:48.065Z,65.20
2018-07-28T04:19:17.109Z,64.87
2018-07-28T04:21:46.153Z,63.78
2018-07-28T04:24:14.940Z,63.63
2018-07-28T04:26:43.076Z,64.21
2018-07-28T04:29:11.545Z,63.76
2018-07-28T04:31:40.014Z,64.14
2018-07-28T04:34:08.965Z,63.88
2018-07-28T04:36:37.188Z,63.51
2018-07-28T04:39:08.639Z,63.40
2018-07-28T04:41:36.940Z,63.79
2018-07-28T04:44:05.393Z,63.88
2018-07-28T04:46:34.197Z,63.49
2018-07-28T04:49:02.901Z,64.46
2018-07-28T04:51:31.035Z,63.86
2018-07-28T04:54:00.077Z,64.90
2018-07-28T04:56:28.780Z,64.73
2018-07-28T04:58:57.175Z,64.73
2018-07-28T05:01:25.946Z,64.62
2018-07-28T05:03:54.661Z,64.51
2018-07-28T05:06:23.188Z,64.51
2018-07-28T05:08:51.852Z,64.96
2018-07-28T05:11:20.605Z,64.79
2018-07-28T05:13:49.004Z,64.70
2018-07-28T05:16:17.161Z,65.20
2018-07-28T05:18:46.017Z,65.21
2018-07-28T05:21:14.749Z,64.80
2018-07-28T05:23:43.251Z,65.19
2018-07-28T05:26:11.665Z,65.25
2018-07-28T05:28:39.779Z,64.82
2018-07-28T05:31:08.105Z,64.13
2018-07-28T05:33:36.793Z,63.97
2018-07-28T05:36:05.254Z,64.18
2018-07-28T05:38:33.969Z,64.36
2018-07-28T05:41:02.097Z,63.67
2018-07-28T05:43:30.565Z,63.46
2018-07-28T05:45:59.308Z,62.97
2018-07-28T05:48:28.296Z,63.42
2018-07-28T05:50:57.052Z,62.81
2018-07-28T05:53:25.552Z,62.72
2018-07-28T05:55:54.172Z,62.76
2018-07-28T05:58:22.616Z,63.25
2018-07-28T06:00:51.388Z,62.53
2018-07-28T06:03:20.356Z,63.46
2018-07-28T06:05:49.102Z,62.92
2018-07-28T06:08:17.556Z,63.24
2018-07-28T06:10:46.193Z,62.25
2018-07-28T06:13:15.069Z,62.72
2018-07-28T06:15:43.200Z,61.98
2018-07-28T06:18:11.702Z,61.47
2018-07-28T06:20:40.256Z,61.75
2018-07-28T06:23:09.124Z,61.56
2018-07-28T06:25:37.826Z,61.40
2018-07-28T06:28:06.289Z,61.65
2018-07-28T06:30:34.704Z,61.88
2018-07-28T06:33:03.035Z,61.94
2018-07-28T06:35:31.637Z,61.38
2018-07-28T06:38:00.333Z,61.73
2018-07-28T06:40:28.788Z,60.77
2018-07-28T06:42:57.635Z,60.84
2018-07-28T06:45:25.785Z,61.12
2018-07-28T06:47:54.357Z,60.78
2018-07-28T06:50:22.987Z,60.89
2018-07-28T06:52:51.717Z,61.64
2018-07-28T06:55:19.869Z,61.04
2018-07-28T06:57:48.407Z,60.22
2018-07-28T07:00:17.516Z,61.17
2018-07-28T07:02:46.181Z,60.93
2018-07-28T07:05:14.681Z,60.63
2018-07-28T07:07:42.978Z,61.21
2018-07-28T07:10:11.483Z,60.95
2018-07-28T07:12:39.843Z,61.29
2018-07-28T07:15:08.397Z,60.72
2018-07-28T07:17:36.501Z,60.23
2018-07-28T07:20:05.312Z,59.34
2018-07-28T07:22:33.756Z,59.37
2018-07-28T07:25:02.153Z,57.84
2018-07-28T07:27:30.732Z,57.92
2018-07-28T07:29:59.556Z,56.42
2018-07-28T07:32:28.580Z,56.58
2018-07-28T07:34:57.396Z,56.81
2018-07-28T07:37:26.172Z,56.57
2018-07-28T08:29:19.248Z,47.40
2018-07-28T08:31:47.840Z,46.02
2018-07-28T08:34:16.509Z,45.23
2018-07-28T08:36:44.861Z,45.80
2018-07-28T08:39:14.996Z,45.40
2018-07-28T08:41:44.056Z,46.18
2018-07-28T08:44:12.493Z,45.81
2018-07-28T08:46:41.716Z,45.42
2018-07-28T08:49:10.466Z,44.45
2018-07-28T08:51:39.005Z,45.19
2018-07-28T08:54:07.158Z,44.51
2018-07-28T08:56:35.733Z,43.68
2018-07-28T08:59:04.821Z,43.41
2018-07-28T09:01:33.785Z,43.52
2018-07-28T09:04:02.568Z,44.31
2018-07-28T09:06:30.675Z,44.20
2018-07-28T09:08:59.913Z,43.51
2018-07-28T09:11:28.824Z,43.85
2018-07-28T09:13:57.545Z,44.30
2018-07-28T09:16:26.222Z,43.17
2018-07-28T09:18:54.521Z,43.34
2018-07-28T09:21:22.638Z,41.75
2018-07-28T09:23:50.978Z,40.39
2018-07-28T09:26:19.573Z,40.97
2018-07-28T09:28:48.013Z,41.05
2018-07-28T09:31:16.589Z,40.54
2018-07-28T09:33:44.684Z,40.65
2018-07-28T09:36:13.116Z,40.74
2018-07-28T09:38:41.769Z,41.56
2018-07-28T09:41:10.329Z,39.87
2018-07-28T09:43:38.416Z,39.23
2018-07-28T09:46:06.970Z,40.43
2018-07-28T09:48:35.842Z,40.14
2018-07-28T09:51:04.553Z,39.20
2018-07-28T09:53:32.673Z,39.64
2018-07-28T09:56:01.123Z,39.43
2018-07-28T09:58:29.330Z,39.63
2018-07-28T10:01:04.022Z,39.45
2018-07-28T10:03:32.668Z,39.93
2018-07-28T10:06:01.341Z,39.98
2018-07-28T10:08:29.529Z,40.11
2018-07-28T10:10:59.123Z,40.87
2018-07-28T10:13:27.769Z,41.33
2018-07-28T10:15:56.705Z,40.49
2018-07-28T10:18:25.223Z,41.57
2018-07-28T10:20:54.423Z,42.27
2018-07-28T10:23:23.001Z,42.07
2018-07-28T10:25:51.964Z,41.86
2018-07-28T10:28:20.774Z,42.98
2018-07-28T10:30:58.959Z,42.25
2018-07-28T10:33:27.680Z,43.90
2018-07-28T10:35:55.800Z,44.69
2018-07-28T10:38:24.560Z,45.32
2018-07-28T10:40:53.204Z,44.89
2018-07-28T10:46:19.206Z,47.31
2018-07-28T10:48:48.895Z,48.34
2018-07-28T10:51:18.009Z,53.02
2018-07-28T10:53:47.469Z,56.47
2018-07-28T10:59:27.570Z,60.28
2018-07-28T12:24:53.264Z,51.80
2018-07-28T12:27:28.228Z,53.21
2018-07-28T12:29:57.602Z,53.25
2018-07-28T12:32:26.398Z,53.05
2018-07-28T12:34:55.384Z,53.73
2018-07-28T12:37:23.701Z,54.04
2018-07-28T12:39:52.321Z,54.82
2018-07-28T12:42:20.956Z,55.05
2018-07-28T12:44:49.405Z,55.88
2018-07-28T12:47:28.177Z,55.47
2018-07-28T12:49:56.942Z,55.97
2018-07-28T12:52:25.724Z,55.54
2018-07-28T12:54:58.008Z,55.23
2018-07-28T12:57:26.988Z,55.54
2018-07-28T12:59:55.457Z,54.94
2018-07-28T13:02:23.660Z,54.97
2018-07-28T13:04:52.648Z,55.70
2018-07-28T13:07:21.343Z,56.02
2018-07-28T13:09:50.328Z,55.99
2018-07-28T13:12:19.663Z,55.72
2018-07-28T13:14:48.421Z,55.44
2018-07-28T13:17:17.129Z,54.19
2018-07-28T13:19:45.357Z,53.02
2018-07-28T13:22:14.133Z,51.35
2018-07-28T13:24:42.656Z,51.15
2018-07-28T13:27:10.757Z,50.69
2018-07-28T13:29:39.274Z,51.56
2018-07-28T13:32:07.746Z,52.33
2018-07-28T13:34:35.845Z,52.15
2018-07-28T13:37:04.732Z,51.80
2018-07-28T13:39:33.033Z,51.43
2018-07-28T13:42:01.487Z,51.55
2018-07-28T13:44:30.389Z,51.39
2018-07-28T13:46:59.324Z,49.53
2018-07-28T13:49:27.773Z,50.47
2018-07-28T13:51:56.525Z,49.92
2018-07-28T13:54:25.649Z,49.42
2018-07-28T13:56:54.367Z,50.02
2018-07-28T13:59:22.796Z,49.96
2018-07-28T14:01:51.408Z,48.30
2018-07-28T14:04:20.360Z,47.36
2018-07-28T14:06:49.414Z,46.90
2018-07-28T14:09:23.977Z,47.60
2018-07-28T14:11:52.369Z,49.50
2018-07-28T14:14:20.837Z,48.51
2018-07-28T14:16:49.596Z,47.51
2018-07-28T14:19:18.571Z,46.58
2018-07-28T14:21:47.560Z,46.86
2018-07-28T14:24:15.968Z,47.09
2018-07-28T14:26:44.080Z,47.88
2018-07-28T14:29:12.322Z,47.21
2018-07-28T14:31:41.269Z,48.33
2018-07-28T14:34:09.749Z,46.81
2018-07-28T14:36:40.179Z,47.87
2018-07-28T14:39:16.828Z,46.70
2018-07-28T14:41:45.701Z,45.22
2018-07-28T14:44:23.599Z,46.23
2018-07-28T14:46:52.757Z,47.32
2018-07-28T14:49:21.779Z,48.12
2018-07-28T14:51:50.438Z,48.69
2018-07-28T14:54:18.864Z,47.86
2018-07-28T14:56:47.769Z,48.60
2018-07-28T14:59:16.535Z,48.36
2018-07-28T15:01:45.289Z,48.26
2018-07-28T15:04:13.736Z,48.59
2018-07-28T15:06:42.422Z,48.34
2018-07-28T15:09:11.253Z,49.10
2018-07-28T15:11:40.131Z,48.28
2018-07-28T15:14:08.561Z,47.69
2018-07-28T15:16:37.401Z,49.03
2018-07-28T15:19:05.880Z,47.78
2018-07-28T15:21:37.976Z,48.41
2018-07-28T15:24:06.821Z,48.96
2018-07-28T15:26:35.390Z,49.46
2018-07-28T15:29:03.865Z,49.19
2018-07-28T15:31:32.210Z,48.43
2018-07-28T15:34:00.661Z,49.66
2018-07-28T15:36:28.779Z,48.51
2018-07-28T15:38:57.781Z,49.04
2018-07-28T15:41:26.145Z,48.57
2018-07-28T15:43:54.932Z,49.43
2018-07-28T15:46:24.416Z,48.00
2018-07-28T15:48:53.229Z,48.96
2018-07-28T15:51:21.698Z,47.87
2018-07-28T15:53:50.136Z,48.04
2018-07-28T15:56:18.650Z,47.66
2018-07-28T15:58:47.500Z,46.77
2018-07-28T16:01:16.185Z,47.36
2018-07-28T16:03:44.652Z,48.68
2018-07-28T16:06:12.857Z,48.18
2018-07-28T16:08:41.589Z,47.29
2018-07-28T16:11:10.189Z,46.25
2018-07-28T16:13:38.645Z,47.22
2018-07-28T16:16:07.593Z,46.57
2018-07-28T16:18:36.053Z,47.47
2018-07-28T16:21:04.436Z,46.11
2018-07-28T16:23:33.121Z,46.03
2018-07-28T16:26:01.789Z,46.11
2018-07-28T16:28:30.349Z,45.79
2018-07-28T16:30:59.008Z,46.02
2018-07-28T16:33:27.180Z,45.95
2018-07-28T16:35:55.912Z,45.95
2018-07-28T16:38:24.844Z,46.51
2018-07-28T16:40:53.592Z,46.50
2018-07-28T16:43:22.265Z,47.70
2018-07-28T16:45:50.933Z,47.95
2018-07-28T16:48:19.516Z,47.96
2018-07-28T16:50:47.812Z,47.70
2018-07-28T16:53:16.535Z,47.36
2018-07-28T16:55:45.201Z,49.98
2018-07-28T16:58:13.629Z,53.05
2018-07-28T17:00:42.222Z,56.68
2018-07-28T17:03:10.675Z,56.96
2018-07-28T17:05:39.525Z,58.40
2018-07-28T17:08:08.153Z,58.34
2018-07-28T17:10:37.173Z,59.77
2018-07-28T17:13:06.333Z,60.86
2018-07-28T17:15:34.778Z,65.60
2018-07-28T17:18:04.130Z,68.48
2018-07-28T17:20:32.756Z,70.87
2018-07-28T17:23:01.220Z,72.47
2018-07-28T17:25:29.756Z,73.93
2018-07-28T17:27:58.133Z,74.66
2018-07-28T17:30:26.366Z,75.23
2018-07-28T17:32:55.219Z,77.58
2018-07-28T17:35:23.916Z,77.26
2018-07-28T17:37:52.705Z,76.73
2018-07-28T17:40:20.876Z,76.87
2018-07-28T17:42:49.002Z,76.76
2018-07-28T17:45:17.728Z,77.23
2018-07-28T17:47:45.821Z,77.57
2018-07-28T17:50:13.936Z,77.30
2018-07-28T17:52:42.433Z,78.15
2018-07-28T17:55:10.959Z,77.92
2018-07-28T17:57:39.745Z,77.44
2018-07-28T18:00:18.081Z,77.37
2018-07-28T18:02:48.082Z,77.19
2018-07-28T18:05:16.888Z,77.53
2018-07-28T18:07:45.633Z,76.46
2018-07-28T18:10:14.085Z,76.52
2018-07-28T18:12:42.940Z,76.25
2018-07-28T18:15:11.401Z,76.97
2018-07-28T18:17:39.988Z,78.69
2018-07-28T18:20:08.703Z,79.22
2018-07-28T18:22:37.171Z,79.25
2018-07-28T18:25:06.120Z,79.27
2018-07-28T18:27:34.894Z,79.06
2018-07-28T18:30:03.324Z,79.60
2018-07-28T18:32:32.149Z,78.50
2018-07-28T18:35:00.920Z,79.26
2018-07-28T18:37:29.037Z,78.47
2018-07-28T18:39:57.546Z,78.94
2018-07-28T18:42:26.181Z,79.01
2018-07-28T18:44:54.582Z,79.35
2018-07-28T18:47:23.014Z,79.41
2018-07-28T18:49:51.449Z,79.96
2018-07-28T18:52:19.585Z,78.64
2018-07-28T18:54:48.197Z,78.38
2018-07-28T18:57:16.996Z,79.24
2018-07-28T18:59:45.481Z,79.88
2018-07-28T19:02:13.944Z,80.78
2018-07-28T19:04:42.084Z,80.98
2018-07-28T19:07:11.192Z,81.71
2018-07-28T19:09:44.973Z,80.48
2018-07-28T19:12:14.241Z,80.96
2018-07-28T19:14:42.688Z,81.20
2018-07-28T19:17:11.093Z,81.10
2018-07-28T19:19:39.983Z,80.25
2018-07-28T19:22:13.881Z,80.85
2018-07-28T19:24:42.332Z,79.83
2018-07-28T19:27:11.277Z,80.15
2018-07-28T19:29:41.705Z,79.06
2018-07-28T19:32:10.077Z,79.17
2018-07-28T19:34:38.472Z,80.12
2018-07-28T19:37:12.112Z,80.21
2018-07-28T19:39:40.562Z,79.29
2018-07-28T19:42:14.281Z,78.46
2018-07-28T19:44:42.755Z,78.42
2018-07-28T19:47:10.886Z,78.18
2018-07-28T19:49:39.405Z,77.56
2018-07-28T19:52:09.337Z,78.13
2018-07-28T19:54:38.317Z,77.58
2018-07-28T19:57:06.740Z,77.72
2018-07-28T19:59:35.629Z,77.74
2018-07-28T20:02:04.028Z,77.48
2018-07-28T20:04:32.492Z,76.82
2018-07-28T20:07:01.444Z,76.69
2018-07-28T20:09:29.858Z,75.57
2018-07-28T20:11:58.485Z,76.37
2018-07-28T20:14:27.164Z,75.76
2018-07-28T20:16:55.703Z,74.79
2018-07-28T20:19:24.348Z,76.28
2018-07-28T20:21:52.921Z,76.33
2018-07-28T20:24:21.284Z,76.71
2018-07-28T20:26:49.922Z,76.76
2018-07-28T20:29:18.237Z,77.76
2018-07-28T20:31:46.872Z,78.11
2018-07-28T20:34:14.969Z,79.40
2018-07-28T20:36:43.424Z,79.32
2018-07-28T20:39:12.728Z,79.99
2018-07-28T20:41:41.185Z,79.93
2018-07-28T20:44:09.309Z,80.55
2018-07-28T20:46:38.078Z,81.64
2018-07-28T20:49:06.927Z,80.95
2018-07-28T20:51:35.575Z,81.50
2018-07-28T20:54:04.201Z,81.51
2018-07-28T20:56:32.880Z,81.03
2018-07-28T20:59:01.497Z,81.28
2018-07-28T21:01:30.080Z,81.72
2018-07-28T21:03:58.172Z,81.52
2018-07-28T21:06:26.625Z,81.72
2018-07-28T21:08:55.268Z,82.17
2018-07-28T21:11:23.753Z,82.49
2018-07-28T21:13:52.132Z,82.68
2018-07-28T21:16:20.607Z,82.83
2018-07-28T21:18:49.460Z,83.39
2018-07-28T21:21:17.568Z,82.31
2018-07-28T21:23:45.969Z,82.23
2018-07-28T21:26:14.165Z,81.62
2018-07-28T21:28:42.541Z,82.57
2018-07-28T21:31:11.283Z,82.25
2018-07-28T21:33:39.734Z,83.12
2018-07-28T21:36:08.076Z,82.55
2018-07-28T21:38:36.544Z,82.78
2018-07-28T21:41:05.209Z,82.38
2018-07-28T21:43:33.344Z,82.59
2018-07-28T21:46:02.600Z,82.09
2018-07-28T21:48:31.073Z,82.23
2018-07-28T21:51:00.190Z,81.18
2018-07-28T21:53:28.528Z,81.42
2018-07-28T21:55:57.293Z,80.47
2018-07-28T21:58:25.420Z,80.97
2018-07-28T22:01:03.119Z,80.70
2018-07-28T22:03:31.321Z,79.81
2018-07-28T22:06:00.456Z,79.72
2018-07-28T22:08:29.225Z,80.21
2018-07-28T22:10:58.043Z,80.65
2018-07-28T22:13:27.245Z,80.84
2018-07-28T22:15:56.409Z,80.13
2018-07-28T22:18:24.849Z,79.51
2018-07-28T22:20:53.629Z,79.80
2018-07-28T22:23:22.369Z,79.31
2018-07-28T22:25:51.025Z,79.33
2018-07-28T22:28:19.471Z,79.37
2018-07-28T22:30:48.455Z,79.80
2018-07-28T22:33:16.568Z,80.27
2018-07-28T22:35:45.353Z,79.66
2018-07-28T22:38:13.733Z,79.83
2018-07-28T22:40:42.131Z,78.99
2018-07-28T22:43:10.787Z,78.60
2018-07-28T22:45:40.179Z,80.02
2018-07-28T22:48:08.316Z,80.20
2018-07-28T22:50:36.435Z,81.38
2018-07-28T22:53:04.584Z,81.33
2018-07-28T22:55:33.037Z,82.41
2018-07-28T22:58:01.833Z,83.76
2018-07-28T23:00:30.456Z,82.81
2018-07-28T23:02:59.481Z,82.49
2018-07-28T23:05:28.449Z,82.16
2018-07-28T23:07:56.873Z,81.52
2018-07-28T23:10:25.898Z,81.37
2018-07-28T23:12:54.904Z,80.82
2018-07-28T23:15:23.221Z,80.38
2018-07-28T23:17:51.361Z,79.99
2018-07-28T23:20:19.752Z,80.35
2018-07-28T23:22:49.323Z,80.15
2018-07-28T23:25:17.869Z,79.67
2018-07-28T23:27:46.753Z,80.06
2018-07-28T23:30:28.452Z,80.32
2018-07-28T23:32:57.011Z,81.01
2018-07-28T23:35:25.253Z,81.38
2018-07-28T23:37:53.862Z,82.39
2018-07-28T23:40:22.264Z,82.59
2018-07-28T23:42:50.886Z,83.54
2018-07-28T23:45:19.669Z,84.25
2018-07-28T23:47:48.640Z,84.83
2018-07-28T23:50:17.610Z,84.15
2018-07-28T23:52:46.585Z,85.87
2018-07-28T23:55:15.041Z,86.36
2018-07-28T23:57:43.406Z,86.05
